Time;durP1;ratioP1;P1;durP2;ratioP2;P2;SDS_P1;SDS_P2;PMS_P1;PMS_P2;Temp;Humidity;BMP_temperature;BMP_pressure;BME280_temperature;BME280_humidity;BME280_pressure;Samples;Min_cycle;Max_cycle;Signal;HPM_P1;HPM_P2
2023/08/25 00:00:05;;;;;;;10.55;5.30;;;;;;;;;;5031544;28;20080;-74
2023/08/25 00:02:31;;;;;;;12.88;5.13;;;;;;;;;;5028163;28;20076;-74
2023/08/25 00:04:57;;;;;;;12.23;5.47;;;;;;;;;;5031665;28;20083;-73
2023/08/25 00:07:23;;;;;;;9.55;5.30;;;;;;;;;;5032329;28;20457;-73
2023/08/25 00:09:49;;;;;;;11.50;5.32;;;;;;;;;;5032807;28;20032;-73
2023/08/25 00:12:15;;;;;;;12.23;5.32;;;;;;;;;;5031570;28;20485;-73
2023/08/25 00:14:41;;;;;;;10.27;5.20;;;;;;;;;;5033420;28;20151;-73
2023/08/25 00:17:08;;;;;;;12.80;5.50;;;;;;;;;;5040227;28;20108;-74
2023/08/25 00:19:34;;;;;;;7.55;5.05;;;;;;;;;;5047128;28;20033;-73
2023/08/25 00:22:00;;;;;;;13.23;5.18;;;;;;;;;;5041701;28;20102;-73
2023/08/25 00:24:26;;;;;;;12.43;5.55;;;;;;;;;;5042301;28;20034;-73
2023/08/25 00:26:52;;;;;;;9.60;5.55;;;;;;;;;;5037057;28;20029;-75
2023/08/25 00:29:20;;;;;;;11.75;5.82;;;;;;;;;;5034478;28;20065;-74
2023/08/25 00:31:46;;;;;;;12.52;6.00;;;;;;;;;;5035976;28;20024;-74
2023/08/25 00:34:12;;;;;;;15.45;6.00;;;;;;;;;;5034882;28;20026;-74
2023/08/25 00:36:38;;;;;;;16.75;5.68;;;;;;;;;;5034854;28;20029;-74
2023/08/25 00:39:04;;;;;;;10.80;6.35;;;;;;;;;;5034231;28;20029;-73
2023/08/25 00:41:30;;;;;;;7.40;5.20;;;;;;;;;;5035165;28;20487;-74
2023/08/25 00:43:56;;;;;;;11.93;5.82;;;;;;;;;;5033960;28;20030;-74
2023/08/25 00:46:22;;;;;;;13.52;5.72;;;;;;;;;;5034693;28;20057;-73
2023/08/25 00:48:49;;;;;;;9.18;5.40;;;;;;;;;;5034288;28;20025;-74
2023/08/25 00:51:15;;;;;;;13.13;5.78;;;;;;;;;;5034255;28;20034;-74
2023/08/25 00:53:42;;;;;;;7.95;5.78;;;;;;;;;;5033828;28;20036;-74
2023/08/25 00:56:09;;;;;;;10.30;5.70;;;;;;;;;;5034434;28;20056;-73
2023/08/25 00:58:35;;;;;;;9.38;5.22;;;;;;;;;;5034574;28;20029;-74
2023/08/25 01:01:03;;;;;;;10.70;6.20;;;;;;;;;;5034365;28;20100;-73
2023/08/25 01:03:29;;;;;;;15.48;6.38;;;;;;;;;;5033737;28;20484;-73
2023/08/25 01:05:55;;;;;;;16.48;6.25;;;;;;;;;;5033725;28;20040;-73
2023/08/25 01:08:22;;;;;;;10.10;5.93;;;;;;;;;;5035154;28;20021;-74
2023/08/25 01:10:48;;;;;;;13.73;5.95;;;;;;;;;;5035245;28;20101;-73
2023/08/25 01:13:18;;;;;;;11.10;6.28;;;;;;;;;;5034698;28;20100;-74
2023/08/25 01:15:46;;;;;;;13.02;6.30;;;;;;;;;;5035339;28;20049;-74
2023/08/25 01:18:15;;;;;;;12.32;6.55;;;;;;;;;;5035147;28;20097;-74
2023/08/25 01:20:42;;;;;;;12.13;6.22;;;;;;;;;;5035142;28;20022;-73
2023/08/25 01:23:20;;;;;;;12.45;6.50;;;;;;;;;;5034820;28;20063;-73
2023/08/25 01:25:48;;;;;;;10.68;6.25;;;;;;;;;;5034949;28;20029;-74
2023/08/25 01:28:14;;;;;;;10.38;6.20;;;;;;;;;;5039722;28;20434;-75
2023/08/25 01:30:40;;;;;;;21.00;6.63;;;;;;;;;;5040240;28;20025;-74
2023/08/25 01:33:06;;;;;;;13.00;6.90;;;;;;;;;;5039273;28;20100;-74
2023/08/25 01:35:38;;;;;;;20.77;7.45;;;;;;;;;;5038071;28;20100;-74
2023/08/25 01:38:27;;;;;;;12.30;6.43;;;;;;;;;;5039718;28;20391;-74
2023/08/25 01:41:02;;;;;;;11.55;6.97;;;;;;;;;;5039264;28;20072;-75
2023/08/25 01:43:30;;;;;;;12.30;7.25;;;;;;;;;;5038452;28;20030;-76
2023/08/25 01:45:57;;;;;;;21.02;8.80;;;;;;;;;;5036383;28;20022;-74
2023/08/25 01:48:24;;;;;;;16.73;7.95;;;;;;;;;;5035833;28;20064;-75
2023/08/25 01:50:50;;;;;;;14.27;8.30;;;;;;;;;;5035630;28;20099;-75
2023/08/25 01:53:16;;;;;;;17.30;7.80;;;;;;;;;;5060185;28;20030;-75
2023/08/25 01:55:42;;;;;;;13.32;7.80;;;;;;;;;;5047790;28;20108;-75
2023/08/25 01:58:09;;;;;;;18.98;9.85;;;;;;;;;;5046955;28;20068;-74
2023/08/25 02:00:35;;;;;;;24.17;10.20;;;;;;;;;;5059130;28;20051;-74
2023/08/25 02:03:01;;;;;;;16.80;10.05;;;;;;;;;;5059079;28;20017;-74
2023/08/25 02:05:27;;;;;;;18.77;9.98;;;;;;;;;;5059089;28;20013;-76
2023/08/25 02:07:53;;;;;;;23.00;11.40;;;;;;;;;;5037003;28;20025;-75
2023/08/25 02:10:19;;;;;;;18.92;10.55;;;;;;;;;;5034220;28;20025;-75
2023/08/25 02:12:45;;;;;;;20.58;11.75;;;;;;;;;;5018319;28;20030;-75
2023/08/25 02:15:11;;;;;;;15.43;10.88;;;;;;;;;;5033704;28;20040;-76
2023/08/25 02:17:37;;;;;;;18.73;11.30;;;;;;;;;;5028622;28;20041;-75
2023/08/25 02:20:04;;;;;;;21.27;12.00;;;;;;;;;;5023729;28;20112;-74
2023/08/25 02:22:30;;;;;;;25.17;12.20;;;;;;;;;;5033583;28;20036;-74
2023/08/25 02:24:56;;;;;;;22.15;11.57;;;;;;;;;;5050077;28;20414;-75
2023/08/25 02:27:22;;;;;;;20.98;11.65;;;;;;;;;;5026156;28;20101;-76
2023/08/25 02:29:48;;;;;;;22.13;11.95;;;;;;;;;;5021403;28;20080;-75
2023/08/25 02:32:14;;;;;;;25.50;12.75;;;;;;;;;;5033447;28;20036;-76
2023/08/25 02:34:40;;;;;;;22.30;11.55;;;;;;;;;;5034121;28;20018;-75
2023/08/25 02:37:06;;;;;;;20.67;11.93;;;;;;;;;;5029067;28;20491;-74
2023/08/25 02:39:32;;;;;;;19.55;13.32;;;;;;;;;;5033296;28;20026;-75
2023/08/25 02:41:58;;;;;;;21.15;12.30;;;;;;;;;;5033278;28;20434;-75
2023/08/25 02:44:24;;;;;;;24.55;15.80;;;;;;;;;;5033100;28;20052;-75
2023/08/25 02:46:50;;;;;;;28.52;14.30;;;;;;;;;;5033068;28;20487;-75
2023/08/25 02:49:16;;;;;;;24.13;15.07;;;;;;;;;;5032829;28;20053;-76
2023/08/25 02:51:42;;;;;;;24.05;14.60;;;;;;;;;;5032914;28;20613;-74
2023/08/25 02:54:08;;;;;;;25.63;14.68;;;;;;;;;;5032275;28;20126;-75
2023/08/25 02:56:34;;;;;;;24.73;17.38;;;;;;;;;;5033422;28;20377;-76
2023/08/25 02:59:00;;;;;;;35.15;18.27;;;;;;;;;;5033225;28;20057;-74
2023/08/25 03:01:26;;;;;;;28.42;17.02;;;;;;;;;;5033556;28;20029;-77
2023/08/25 03:03:52;;;;;;;29.50;17.48;;;;;;;;;;5037896;28;20033;-75
2023/08/25 03:06:18;;;;;;;28.88;19.77;;;;;;;;;;5037486;28;20526;-74
2023/08/25 03:08:45;;;;;;;31.83;19.00;;;;;;;;;;5035073;28;20044;-75
2023/08/25 03:11:11;;;;;;;26.20;18.05;;;;;;;;;;5036030;28;20122;-75
2023/08/25 03:13:37;;;;;;;30.67;18.90;;;;;;;;;;5035810;28;20069;-74
2023/08/25 03:16:03;;;;;;;26.58;18.45;;;;;;;;;;5035638;28;20068;-73
2023/08/25 03:18:29;;;;;;;30.05;19.02;;;;;;;;;;5032942;28;20022;-74
2023/08/25 03:20:56;;;;;;;38.58;21.23;;;;;;;;;;5033212;28;20017;-73
2023/08/25 03:23:22;;;;;;;35.75;21.75;;;;;;;;;;5032652;28;20022;-74
2023/08/25 03:25:48;;;;;;;36.25;19.45;;;;;;;;;;5033210;28;20088;-75
2023/08/25 03:28:14;;;;;;;29.75;19.40;;;;;;;;;;5036418;28;20025;-74
2023/08/25 03:30:40;;;;;;;32.85;21.55;;;;;;;;;;5034651;28;20094;-75
2023/08/25 03:33:06;;;;;;;34.00;21.13;;;;;;;;;;5035431;28;20539;-76
2023/08/25 03:35:38;;;;;;;34.53;22.52;;;;;;;;;;5034803;28;20036;-75
2023/08/25 03:38:05;;;;;;;43.42;23.58;;;;;;;;;;5035019;28;20025;-74
2023/08/25 03:40:31;;;;;;;35.40;23.70;;;;;;;;;;5035468;28;20017;-74
2023/08/25 03:42:57;;;;;;;34.72;21.70;;;;;;;;;;5033412;28;20029;-73
2023/08/25 03:45:23;;;;;;;35.13;21.63;;;;;;;;;;5035587;28;20025;-74
2023/08/25 03:47:49;;;;;;;35.67;21.52;;;;;;;;;;5036834;28;20021;-73
2023/08/25 03:50:15;;;;;;;33.15;22.20;;;;;;;;;;5035728;28;20113;-77
2023/08/25 03:52:41;;;;;;;39.15;23.05;;;;;;;;;;5036486;28;20040;-74
2023/08/25 03:55:08;;;;;;;38.28;22.60;;;;;;;;;;5036088;28;20029;-74
2023/08/25 03:57:34;;;;;;;33.38;21.85;;;;;;;;;;5032178;28;20049;-73
2023/08/25 04:00:00;;;;;;;37.90;21.73;;;;;;;;;;5031942;28;20025;-74
2023/08/25 04:02:26;;;;;;;38.00;22.20;;;;;;;;;;5031976;28;20407;-74
2023/08/25 04:04:52;;;;;;;39.75;22.67;;;;;;;;;;5032325;28;20064;-73
2023/08/25 04:07:18;;;;;;;36.80;23.98;;;;;;;;;;5032000;28;20029;-75
2023/08/25 04:09:44;;;;;;;35.30;23.65;;;;;;;;;;5031991;28;20033;-73
2023/08/25 04:12:11;;;;;;;34.75;23.52;;;;;;;;;;5030630;28;20022;-73
2023/08/25 04:14:37;;;;;;;41.25;25.33;;;;;;;;;;5033490;28;20464;-75
2023/08/25 04:17:04;;;;;;;38.75;25.48;;;;;;;;;;5033198;28;20087;-74
2023/08/25 04:19:30;;;;;;;34.85;22.88;;;;;;;;;;5033445;28;20071;-74
2023/08/25 04:21:55;;;;;;;44.97;25.40;;;;;;;;;;5033639;28;20025;-76
2023/08/25 04:24:21;;;;;;;36.83;23.63;;;;;;;;;;5034627;28;20032;-75
2023/08/25 04:26:47;;;;;;;37.35;24.33;;;;;;;;;;5034267;28;20026;-75
2023/08/25 04:29:13;;;;;;;38.50;23.58;;;;;;;;;;5033086;28;20167;-75
2023/08/25 04:31:39;;;;;;;36.35;23.90;;;;;;;;;;5033139;28;20113;-74
2023/08/25 04:34:05;;;;;;;45.78;24.70;;;;;;;;;;5033353;28;20034;-75
2023/08/25 04:36:32;;;;;;;38.45;23.42;;;;;;;;;;5033185;28;20064;-74
2023/08/25 04:38:58;;;;;;;43.83;25.50;;;;;;;;;;5033752;28;20029;-74
2023/08/25 04:41:24;;;;;;;40.05;24.73;;;;;;;;;;5033685;28;20026;-75
2023/08/25 04:43:50;;;;;;;36.90;25.02;;;;;;;;;;5033067;28;20384;-74
2023/08/25 04:46:16;;;;;;;39.97;26.63;;;;;;;;;;5034632;28;20029;-76
2023/08/25 04:48:45;;;;;;;44.42;25.80;;;;;;;;;;5034483;28;20026;-74
2023/08/25 04:51:11;;;;;;;43.53;27.70;;;;;;;;;;5036733;28;20018;-75
2023/08/25 04:53:37;;;;;;;44.08;25.30;;;;;;;;;;5031894;28;20103;-75
2023/08/25 04:56:04;;;;;;;39.95;26.58;;;;;;;;;;5028565;28;20053;-75
2023/08/25 04:58:31;;;;;;;54.00;29.00;;;;;;;;;;5032798;28;20026;-77
2023/08/25 05:00:57;;;;;;;43.35;28.15;;;;;;;;;;5032815;28;20018;-78
2023/08/25 05:03:23;;;;;;;43.65;27.42;;;;;;;;;;5030746;28;20021;-75
2023/08/25 05:05:49;;;;;;;38.90;26.17;;;;;;;;;;5032375;28;20018;-76
2023/08/25 05:08:15;;;;;;;47.58;28.83;;;;;;;;;;5031382;28;20049;-75
2023/08/25 05:10:41;;;;;;;49.35;29.45;;;;;;;;;;5030845;28;20381;-78
2023/08/25 05:13:07;;;;;;;45.10;28.02;;;;;;;;;;5037901;28;20068;-75
2023/08/25 05:15:33;;;;;;;47.42;28.70;;;;;;;;;;5040279;28;20055;-75
2023/08/25 05:17:59;;;;;;;47.92;30.90;;;;;;;;;;5038994;28;20036;-76
2023/08/25 05:20:25;;;;;;;54.95;35.95;;;;;;;;;;5036070;28;20025;-76
2023/08/25 05:22:51;;;;;;;45.92;29.30;;;;;;;;;;5037238;28;20431;-76
2023/08/25 05:25:20;;;;;;;51.60;31.45;;;;;;;;;;5049015;28;20519;-78
2023/08/25 05:27:46;;;;;;;54.95;35.30;;;;;;;;;;5057288;28;20033;-74
2023/08/25 05:30:12;;;;;;;62.55;35.47;;;;;;;;;;5053803;28;20029;-75
2023/08/25 05:32:38;;;;;;;56.75;36.60;;;;;;;;;;5050980;28;20033;-74
2023/08/25 05:35:05;;;;;;;57.42;36.50;;;;;;;;;;5049915;28;20527;-78
2023/08/25 05:37:31;;;;;;;59.53;34.35;;;;;;;;;;5033795;28;20091;-77
2023/08/25 05:39:58;;;;;;;63.67;38.20;;;;;;;;;;5039031;28;20418;-78
2023/08/25 05:42:31;;;;;;;50.95;34.10;;;;;;;;;;5037181;28;20049;-74
2023/08/25 05:44:57;;;;;;;57.13;37.67;;;;;;;;;;5033197;28;20052;-75
2023/08/25 05:47:23;;;;;;;57.90;37.05;;;;;;;;;;5037904;28;20283;-75
2023/08/25 05:49:50;;;;;;;56.03;35.10;;;;;;;;;;5039572;28;20479;-77
2023/08/25 05:52:16;;;;;;;57.80;36.55;;;;;;;;;;5036587;28;20060;-74
2023/08/25 05:54:42;;;;;;;55.10;37.78;;;;;;;;;;5038057;28;20029;-74
2023/08/25 05:57:08;;;;;;;59.78;33.85;;;;;;;;;;5035911;28;20391;-75
2023/08/25 05:59:34;;;;;;;53.83;34.92;;;;;;;;;;5037871;28;20108;-76
2023/08/25 06:02:00;;;;;;;57.17;35.28;;;;;;;;;;5036939;28;20025;-74
2023/08/25 06:04:27;;;;;;;52.55;34.22;;;;;;;;;;5036306;28;20185;-74
2023/08/25 06:06:53;;;;;;;47.22;32.00;;;;;;;;;;5033443;28;20026;-74
2023/08/25 06:09:19;;;;;;;48.75;31.42;;;;;;;;;;5038072;28;20056;-75
2023/08/25 06:11:45;;;;;;;54.15;34.60;;;;;;;;;;5035036;28;20124;-74
2023/08/25 06:14:11;;;;;;;56.17;33.53;;;;;;;;;;5033881;28;20041;-74
2023/08/25 06:16:38;;;;;;;48.33;34.00;;;;;;;;;;5033820;28;20108;-74
2023/08/25 06:19:04;;;;;;;60.08;40.10;;;;;;;;;;5033777;28;20029;-75
2023/08/25 06:21:30;;;;;;;51.20;36.25;;;;;;;;;;5034221;28;20044;-75
2023/08/25 06:23:57;;;;;;;64.80;38.65;;;;;;;;;;5037764;28;20446;-75
2023/08/25 06:26:23;;;;;;;51.05;33.30;;;;;;;;;;5043862;28;20026;-75
2023/08/25 06:28:49;;;;;;;65.82;39.67;;;;;;;;;;5046296;28;20026;-75
2023/08/25 06:31:16;;;;;;;51.80;34.55;;;;;;;;;;5046375;28;20024;-74
2023/08/25 06:33:42;;;;;;;49.47;34.55;;;;;;;;;;5039570;28;20021;-74
2023/08/25 06:36:09;;;;;;;53.40;34.80;;;;;;;;;;5034207;28;20075;-78
2023/08/25 06:38:35;;;;;;;47.17;33.45;;;;;;;;;;5035215;28;20022;-74
2023/08/25 06:41:01;;;;;;;47.33;30.35;;;;;;;;;;5035453;28;20029;-76
2023/08/25 06:43:27;;;;;;;44.05;31.52;;;;;;;;;;5034254;28;20024;-76
2023/08/25 06:45:53;;;;;;;43.67;29.33;;;;;;;;;;5033709;28;20018;-76
2023/08/25 06:48:19;;;;;;;49.05;31.85;;;;;;;;;;5034114;28;20025;-76
2023/08/25 06:50:46;;;;;;;57.35;38.30;;;;;;;;;;5034794;28;20029;-75
2023/08/25 06:53:12;;;;;;;49.92;32.92;;;;;;;;;;5037293;28;20049;-77
2023/08/25 06:55:38;;;;;;;50.95;31.02;;;;;;;;;;5038387;28;20028;-75
2023/08/25 06:58:06;;;;;;;58.03;39.10;;;;;;;;;;5035113;28;20411;-74
2023/08/25 07:00:32;;;;;;;61.08;36.67;;;;;;;;;;5034550;28;20117;-75
2023/08/25 07:02:58;;;;;;;64.55;39.50;;;;;;;;;;5035551;28;20048;-76
2023/08/25 07:05:24;;;;;;;55.40;36.58;;;;;;;;;;5054866;28;20037;-76
2023/08/25 07:07:53;;;;;;;49.22;32.28;;;;;;;;;;5053039;28;20026;-75
2023/08/25 07:10:19;;;;;;;59.58;33.47;;;;;;;;;;5068131;28;20051;-78
2023/08/25 07:12:45;;;;;;;42.90;29.27;;;;;;;;;;5056051;28;20022;-75
2023/08/25 07:15:12;;;;;;;49.92;34.28;;;;;;;;;;5034885;28;20093;-75
2023/08/25 07:17:39;;;;;;;54.65;35.65;;;;;;;;;;5040470;28;20033;-75
2023/08/25 07:20:06;;;;;;;50.20;29.33;;;;;;;;;;5033894;28;20104;-77
2023/08/25 07:22:32;;;;;;;49.45;33.47;;;;;;;;;;5026729;28;20096;-76
2023/08/25 07:24:58;;;;;;;51.08;32.95;;;;;;;;;;5017415;28;20056;-76
2023/08/25 07:27:25;;;;;;;52.33;32.70;;;;;;;;;;5029031;28;20033;-76
2023/08/25 07:29:53;;;;;;;46.55;28.38;;;;;;;;;;5034174;28;20029;-75
2023/08/25 07:32:22;;;;;;;44.75;28.65;;;;;;;;;;5034294;28;20483;-76
2023/08/25 07:34:48;;;;;;;47.22;29.63;;;;;;;;;;5034751;28;20028;-78
2023/08/25 07:37:14;;;;;;;42.45;27.33;;;;;;;;;;5036150;28;20378;-79
2023/08/25 07:39:41;;;;;;;38.33;25.90;;;;;;;;;;5036720;28;20036;-77
2023/08/25 07:42:07;;;;;;;46.33;29.13;;;;;;;;;;5035753;28;20029;-77
2023/08/25 07:44:33;;;;;;;42.95;29.48;;;;;;;;;;5035447;28;20025;-79
2023/08/25 07:46:59;;;;;;;41.92;27.15;;;;;;;;;;5035406;28;20111;-76
2023/08/25 07:49:25;;;;;;;40.33;26.42;;;;;;;;;;5032871;28;20022;-78
2023/08/25 07:51:51;;;;;;;39.53;25.80;;;;;;;;;;5033288;28;20479;-77
2023/08/25 07:54:17;;;;;;;36.58;24.38;;;;;;;;;;5033123;28;20299;-75
2023/08/25 07:56:43;;;;;;;41.20;26.40;;;;;;;;;;5033268;28;20263;-76
2023/08/25 07:59:10;;;;;;;37.10;24.25;;;;;;;;;;5032930;28;20491;-77
2023/08/25 08:01:36;;;;;;;32.97;22.20;;;;;;;;;;5031817;28;20025;-80
2023/08/25 08:04:03;;;;;;;32.58;21.23;;;;;;;;;;5033676;28;20100;-77
2023/08/25 08:06:29;;;;;;;37.30;22.02;;;;;;;;;;5034594;28;20487;-79
2023/08/25 08:08:56;;;;;;;42.58;21.38;;;;;;;;;;5035065;28;20116;-74
2023/08/25 08:11:21;;;;;;;37.95;24.98;;;;;;;;;;5033237;28;20017;-73
2023/08/25 08:13:47;;;;;;;45.45;24.65;;;;;;;;;;5031730;28;20037;-71
2023/08/25 08:16:13;;;;;;;31.55;21.77;;;;;;;;;;5031833;28;20422;-73
2023/08/25 08:18:39;;;;;;;32.67;21.80;;;;;;;;;;5030822;28;20017;-71
2023/08/25 08:21:05;;;;;;;36.42;22.75;;;;;;;;;;5031059;28;20057;-74
2023/08/25 08:23:31;;;;;;;30.48;20.00;;;;;;;;;;5031314;28;20030;-76
2023/08/25 08:25:58;;;;;;;32.63;20.20;;;;;;;;;;5043020;28;20025;-73
2023/08/25 08:28:24;;;;;;;40.05;24.52;;;;;;;;;;5051660;28;20107;-75
2023/08/25 08:30:50;;;;;;;35.00;22.83;;;;;;;;;;5051724;28;20033;-73
2023/08/25 08:33:16;;;;;;;42.45;22.85;;;;;;;;;;5050767;28;20044;-77
2023/08/25 08:35:43;;;;;;;35.22;20.88;;;;;;;;;;5051985;28;20060;-78
2023/08/25 08:38:09;;;;;;;35.30;21.70;;;;;;;;;;5052706;28;20037;-72
2023/08/25 08:40:37;;;;;;;33.85;20.77;;;;;;;;;;5051306;28;20074;-72
2023/08/25 08:43:07;;;;;;;29.98;19.45;;;;;;;;;;5050028;28;20122;-72
2023/08/25 08:45:38;;;;;;;31.45;18.55;;;;;;;;;;5053657;28;20450;-72
2023/08/25 08:48:07;;;;;;;34.13;19.45;;;;;;;;;;5056428;28;20021;-72
2023/08/25 08:50:33;;;;;;;27.80;18.45;;;;;;;;;;5056095;28;20028;-72
2023/08/25 08:53:00;;;;;;;27.73;19.08;;;;;;;;;;5055281;28;20025;-72
2023/08/25 08:55:27;;;;;;;36.45;21.88;;;;;;;;;;5062835;28;20037;-72
2023/08/25 08:57:53;;;;;;;35.42;20.42;;;;;;;;;;5058270;28;20098;-71
2023/08/25 09:00:19;;;;;;;31.55;21.20;;;;;;;;;;5055697;28;20467;-70
2023/08/25 09:02:48;;;;;;;31.60;22.45;;;;;;;;;;5054944;28;20017;-73
2023/08/25 09:05:15;;;;;;;32.60;20.65;;;;;;;;;;5054879;28;20100;-71
2023/08/25 09:07:42;;;;;;;31.17;20.08;;;;;;;;;;5054745;28;20025;-72
2023/08/25 09:10:10;;;;;;;39.75;23.05;;;;;;;;;;5055032;28;20017;-71
2023/08/25 09:12:36;;;;;;;39.80;24.08;;;;;;;;;;5057445;28;20130;-77
2023/08/25 09:15:03;;;;;;;28.83;18.83;;;;;;;;;;5061346;28;20067;-76
2023/08/25 09:17:29;;;;;;;36.67;22.10;;;;;;;;;;5059226;28;20098;-75
2023/08/25 09:20:04;;;;;;;36.17;22.38;;;;;;;;;;5057417;28;20036;-74
2023/08/25 09:22:31;;;;;;;33.30;21.80;;;;;;;;;;5059273;28;20100;-74
2023/08/25 09:24:58;;;;;;;34.45;23.45;;;;;;;;;;5058107;28;20399;-74
2023/08/25 09:27:25;;;;;;;31.40;21.67;;;;;;;;;;5056406;28;20420;-75
2023/08/25 09:29:59;;;;;;;37.47;23.70;;;;;;;;;;5054931;28;20060;-73
2023/08/25 09:32:25;;;;;;;35.57;19.83;;;;;;;;;;5054506;28;20035;-75
2023/08/25 09:34:51;;;;;;;33.50;22.27;;;;;;;;;;5054446;28;20018;-74
2023/08/25 09:37:17;;;;;;;41.53;23.58;;;;;;;;;;5054921;28;20116;-74
2023/08/25 09:39:43;;;;;;;31.58;21.65;;;;;;;;;;5058827;28;20053;-74
2023/08/25 09:42:10;;;;;;;37.30;20.77;;;;;;;;;;5064838;28;20021;-73
2023/08/25 09:44:36;;;;;;;35.55;21.83;;;;;;;;;;5065306;28;20036;-74
2023/08/25 09:47:02;;;;;;;34.38;23.38;;;;;;;;;;5067279;28;20071;-73
2023/08/25 09:49:37;;;;;;;29.27;21.15;;;;;;;;;;5063845;28;20029;-75
2023/08/25 09:52:05;;;;;;;34.53;21.15;;;;;;;;;;5065131;28;20064;-74
2023/08/25 09:54:32;;;;;;;32.60;21.50;;;;;;;;;;5067743;28;20044;-72
2023/08/25 09:56:58;;;;;;;31.90;18.50;;;;;;;;;;5055241;28;20021;-72
2023/08/25 09:59:24;;;;;;;44.95;30.77;;;;;;;;;;5052627;28;20025;-73
2023/08/25 10:01:51;;;;;;;36.08;21.40;;;;;;;;;;5053521;28;20387;-73
2023/08/25 10:04:17;;;;;;;27.13;17.13;;;;;;;;;;5053748;28;20500;-73
2023/08/25 10:06:43;;;;;;;30.90;19.30;;;;;;;;;;5053650;28;20032;-73
2023/08/25 10:09:09;;;;;;;36.05;20.40;;;;;;;;;;5053513;28;20387;-73
2023/08/25 10:11:35;;;;;;;41.25;19.20;;;;;;;;;;5053731;28;20028;-73
2023/08/25 10:14:03;;;;;;;31.55;17.70;;;;;;;;;;5053544;28;20037;-73
2023/08/25 10:16:31;;;;;;;35.28;21.02;;;;;;;;;;5054090;28;20116;-74
2023/08/25 10:18:59;;;;;;;32.47;19.23;;;;;;;;;;5054389;28;20017;-75
2023/08/25 10:21:25;;;;;;;31.98;20.45;;;;;;;;;;5054166;28;20478;-76
2023/08/25 10:23:55;;;;;;;29.92;19.60;;;;;;;;;;5054510;28;20106;-75
2023/08/25 10:26:22;;;;;;;34.78;20.45;;;;;;;;;;5040252;28;20076;-75
2023/08/25 10:28:49;;;;;;;29.38;19.13;;;;;;;;;;5033247;28;20052;-76
2023/08/25 10:31:15;;;;;;;33.83;17.30;;;;;;;;;;5033393;28;20032;-75
2023/08/25 10:33:51;;;;;;;35.38;19.58;;;;;;;;;;5034231;28;20022;-75
2023/08/25 10:36:19;;;;;;;34.97;20.27;;;;;;;;;;5047886;28;20449;-76
2023/08/25 10:38:51;;;;;;;31.70;19.73;;;;;;;;;;5056182;28;20021;-75
2023/08/25 10:41:19;;;;;;;30.50;19.15;;;;;;;;;;5054692;28;20019;-75
2023/08/25 10:43:46;;;;;;;30.10;18.83;;;;;;;;;;5055341;28;20025;-75
2023/08/25 10:46:12;;;;;;;29.48;17.67;;;;;;;;;;5049720;28;20026;-76
2023/08/25 10:48:38;;;;;;;28.05;17.80;;;;;;;;;;5034790;28;20040;-76
2023/08/25 10:51:11;;;;;;;30.30;18.10;;;;;;;;;;5032635;28;20030;-76
2023/08/25 10:53:47;;;;;;;27.23;16.60;;;;;;;;;;5033352;28;20018;-76
2023/08/25 10:56:22;;;;;;;32.60;17.38;;;;;;;;;;5029808;28;20030;-75
2023/08/25 10:58:54;;;;;;;31.88;17.75;;;;;;;;;;5033001;28;20021;-76
2023/08/25 11:01:20;;;;;;;25.40;14.65;;;;;;;;;;5033027;28;20057;-76
2023/08/25 11:03:47;;;;;;;29.52;15.57;;;;;;;;;;5030865;28;20053;-76
2023/08/25 11:06:33;;;;;;;32.78;16.80;;;;;;;;;;5032469;28;20026;-75
2023/08/25 11:08:59;;;;;;;30.55;16.98;;;;;;;;;;5031251;28;20018;-74
2023/08/25 11:11:25;;;;;;;30.83;17.27;;;;;;;;;;5031817;28;20022;-78
2023/08/25 11:13:53;;;;;;;29.48;16.67;;;;;;;;;;5033615;28;20021;-75
2023/08/25 11:16:19;;;;;;;20.88;14.15;;;;;;;;;;5031691;28;20104;-76
2023/08/25 11:18:45;;;;;;;34.53;16.55;;;;;;;;;;5033505;28;20022;-75
2023/08/25 11:21:11;;;;;;;28.23;16.48;;;;;;;;;;5034364;28;20029;-76
2023/08/25 11:23:38;;;;;;;28.42;17.02;;;;;;;;;;5033715;28;20018;-76
2023/08/25 11:26:04;;;;;;;29.15;17.55;;;;;;;;;;5034372;28;20029;-78
2023/08/25 11:28:30;;;;;;;30.52;18.40;;;;;;;;;;5032205;28;20044;-76
2023/08/25 11:30:57;;;;;;;31.40;17.55;;;;;;;;;;5031274;28;20076;-77
2023/08/25 11:33:25;;;;;;;30.63;15.88;;;;;;;;;;5031744;28;20487;-77
2023/08/25 11:35:51;;;;;;;31.55;18.55;;;;;;;;;;5033517;28;20029;-77
2023/08/25 11:38:17;;;;;;;31.42;19.35;;;;;;;;;;5031822;28;20514;-75
2023/08/25 11:40:43;;;;;;;27.40;17.25;;;;;;;;;;5032836;28;20056;-78
2023/08/25 11:43:09;;;;;;;31.80;17.83;;;;;;;;;;5035675;28;21673;-77
2023/08/25 11:45:37;;;;;;;34.67;18.15;;;;;;;;;;5034577;28;20037;-77
2023/08/25 11:48:04;;;;;;;30.40;17.48;;;;;;;;;;5034534;28;20017;-77
2023/08/25 11:50:30;;;;;;;24.65;16.48;;;;;;;;;;5035230;28;20052;-77
2023/08/25 11:52:56;;;;;;;30.52;17.65;;;;;;;;;;5032835;28;20557;-76
2023/08/25 11:55:31;;;;;;;29.52;17.85;;;;;;;;;;5031354;28;20021;-77
2023/08/25 11:57:57;;;;;;;32.78;18.35;;;;;;;;;;5031785;28;20017;-77
2023/08/25 12:00:23;;;;;;;33.08;18.55;;;;;;;;;;5035627;28;20116;-78
2023/08/25 12:02:59;;;;;;;29.75;16.90;;;;;;;;;;5036964;28;20811;-76
2023/08/25 12:05:28;;;;;;;33.35;17.77;;;;;;;;;;5028030;28;20021;-76
2023/08/25 12:07:59;;;;;;;26.42;17.75;;;;;;;;;;5023525;28;20083;-76
2023/08/25 12:10:25;;;;;;;25.10;16.27;;;;;;;;;;5027832;28;20483;-77
2023/08/25 12:12:53;;;;;;;29.15;18.73;;;;;;;;;;5017830;28;20116;-77
2023/08/25 12:15:19;;;;;;;32.00;19.80;;;;;;;;;;5014858;28;20107;-77
2023/08/25 12:17:47;;;;;;;37.05;21.25;;;;;;;;;;5028216;28;20034;-76
2023/08/25 12:20:15;;;;;;;36.05;21.30;;;;;;;;;;5021210;28;20612;-77
2023/08/25 12:22:54;;;;;;;28.23;20.30;;;;;;;;;;5055571;28;20025;-77
2023/08/25 12:25:20;;;;;;;37.63;23.15;;;;;;;;;;5035447;28;20037;-77
2023/08/25 12:27:46;;;;;;;31.25;20.77;;;;;;;;;;5035838;28;20009;-76
2023/08/25 12:30:13;;;;;;;31.25;22.40;;;;;;;;;;5041178;28;20053;-77
2023/08/25 12:32:39;;;;;;;37.72;21.38;;;;;;;;;;5032787;28;20030;-77
2023/08/25 12:35:05;;;;;;;33.35;24.90;;;;;;;;;;5030363;28;20022;-79
2023/08/25 12:37:31;;;;;;;35.67;22.27;;;;;;;;;;5014259;28;20026;-78
2023/08/25 12:39:57;;;;;;;36.33;21.42;;;;;;;;;;5034966;28;20021;-80
2023/08/25 12:42:23;;;;;;;31.02;19.60;;;;;;;;;;5019837;28;20539;-80
2023/08/25 12:44:50;;;;;;;28.50;18.13;;;;;;;;;;5030206;28;20089;-80
2023/08/25 12:47:16;;;;;;;29.83;19.83;;;;;;;;;;5038161;28;20080;-76
2023/08/25 12:49:42;;;;;;;30.95;18.27;;;;;;;;;;5040257;28;20030;-75
2023/08/25 12:52:08;;;;;;;30.08;19.40;;;;;;;;;;5034464;28;20471;-75
2023/08/25 12:54:34;;;;;;;25.55;18.02;;;;;;;;;;5036574;28;20021;-75
2023/08/25 12:57:00;;;;;;;30.83;17.48;;;;;;;;;;5033993;28;20345;-76
2023/08/25 12:59:26;;;;;;;27.88;16.85;;;;;;;;;;5039084;28;20043;-76
2023/08/25 13:01:52;;;;;;;28.17;17.40;;;;;;;;;;5038894;28;20089;-75
2023/08/25 13:04:18;;;;;;;24.52;15.52;;;;;;;;;;5034449;28;20065;-76
2023/08/25 13:06:45;;;;;;;32.33;18.33;;;;;;;;;;5033533;28;20106;-76
2023/08/25 13:09:11;;;;;;;26.20;16.70;;;;;;;;;;5033168;28;20086;-74
2023/08/25 13:11:37;;;;;;;30.20;18.08;;;;;;;;;;5038461;28;20030;-77
2023/08/25 13:14:03;;;;;;;21.98;14.90;;;;;;;;;;5034786;28;20045;-75
2023/08/25 13:16:29;;;;;;;26.58;16.65;;;;;;;;;;5034687;28;20118;-75
2023/08/25 13:18:55;;;;;;;25.38;16.25;;;;;;;;;;5041810;28;20542;-76
2023/08/25 13:21:21;;;;;;;25.33;14.05;;;;;;;;;;5047207;28;20097;-75
2023/08/25 13:23:47;;;;;;;28.17;16.33;;;;;;;;;;5044847;28;20069;-75
2023/08/25 13:26:13;;;;;;;25.25;14.63;;;;;;;;;;5044709;28;20028;-75
2023/08/25 13:28:39;;;;;;;27.65;15.57;;;;;;;;;;5042817;28;20035;-75
2023/08/25 13:31:05;;;;;;;22.15;14.30;;;;;;;;;;5039212;28;20120;-75
2023/08/25 13:33:31;;;;;;;21.15;14.20;;;;;;;;;;5040057;28;20044;-76
2023/08/25 13:35:57;;;;;;;23.65;13.30;;;;;;;;;;5039115;28;20025;-75
2023/08/25 13:38:23;;;;;;;22.60;13.60;;;;;;;;;;5035795;28;20138;-75
2023/08/25 13:40:49;;;;;;;27.33;15.27;;;;;;;;;;5037685;28;20028;-76
2023/08/25 13:43:15;;;;;;;30.27;14.77;;;;;;;;;;5035618;28;20075;-75
2023/08/25 13:45:41;;;;;;;25.10;13.63;;;;;;;;;;5038661;28;20033;-75
2023/08/25 13:48:08;;;;;;;23.05;15.10;;;;;;;;;;5039964;28;20483;-74
2023/08/25 13:50:34;;;;;;;34.22;19.30;;;;;;;;;;5039791;28;20425;-76
2023/08/25 13:53:00;;;;;;;23.92;14.43;;;;;;;;;;5036174;28;20056;-74
2023/08/25 13:55:26;;;;;;;27.75;15.55;;;;;;;;;;5039343;28;20091;-75
2023/08/25 13:57:52;;;;;;;24.42;14.82;;;;;;;;;;5043388;28;20026;-75
2023/08/25 14:00:18;;;;;;;22.98;13.63;;;;;;;;;;5046830;28;20379;-74
2023/08/25 14:02:45;;;;;;;24.38;12.93;;;;;;;;;;5053836;28;20033;-75
2023/08/25 14:05:12;;;;;;;24.77;12.68;;;;;;;;;;5058072;28;20026;-75
2023/08/25 14:07:39;;;;;;;30.20;13.65;;;;;;;;;;5056639;28;20024;-75
2023/08/25 14:10:05;;;;;;;26.85;14.48;;;;;;;;;;5051024;28;20088;-76
2023/08/25 14:12:31;;;;;;;22.60;13.75;;;;;;;;;;5036084;28;20032;-73
2023/08/25 14:14:57;;;;;;;25.75;16.00;;;;;;;;;;5033574;28;20041;-74